Chagrin Falls, OH (44022)

7:11 PM EDT on May 27, 2015 (GMT -0400)
South Russell Service Department | | Change Station
CLOSE
Current Station
Personal Weather Station
Location: South Russell, OH
Elevation: 1194 ft
Nearby Weather Stations

Elev 1194 ft 41.43 °N, 81.34 °W | Updated 8 minutes ago

Mostly Cloudy
Mostly Cloudy
64.5 °F
Feels Like 64.5 °F
N
3.0
Wind Variable Wind from NNW
Gusts 16.0 mph

Today
High -- | Low -- °F
--% Chance of Precip.
Yesterday
High -- | Low -- °F
Precip. -- in
5:57 AM 8:48 PM
Waxing Gibbous, 71% visible
Pressure 30.07 in
Visibility 6.0 miles
Clouds Mostly Cloudy 3000 ft
Overcast 6000 ft
Dew Point Not available.
Humidity Not available.
Rainfall -999.00 in
Snow Depth Not available.
UV 0 out of 12
Pollen 8.00 out of 12
Air Quality Not available.
Flu Activity Local Activity
METAR KCGF 272245Z 27008KT 6SM -SHRA BKN030 OVC060 18/16 A3007

More Conditions Fewer Conditions

Pressure 30.07 in
Visibility 6.0 miles
Clouds Mostly Cloudy 3000 ft
Overcast 6000 ft
Dew Point Not available.
Humidity Not available.
Rainfall -999.00 in
Snow Depth Not available.
UV 0 out of 12
Pollen 8.00 out of 12
Air Quality Not available.
Flu Activity Local Activity
METAR KCGF 272245Z 27008KT 6SM -SHRA BKN030 OVC060 18/16 A3007

More Conditions Fewer Conditions

10-Day Weather Forecast

Almanac

Astronomy

May. 27, 2015 Rise Set
Actual Time
Civil Twilight
Nautical Twilight
Astronomical Twilight
Moon
Length of Visible Light
Length of Day
Tomorrow will be .
, % of the Moon is Illuminated

Today's Extremes

State Highs State Lows

Community

WunderPhotos

Upload Photos

1,824,821 photos uploaded!

WunderBlogs® & News

Nearby

Air Quality

  Air Quality AQ Index Pollutant
Not available.

Snow Depth

Station Depth Elevation

Earthquake Activity

City Distance Mag. Time & Date
Minimum magnitude displayed is 2.5.

Coastal Water Temperatures

Place Temperature

Stations

Nearby Weather Stations

Station Location Temp. Windchill Dew Point Humidity Wind Precip. Elev Updated Type